Time;durP1;ratioP1;P1;durP2;ratioP2;P2;SDS_P1;SDS_P2;PMS_P1;PMS_P2;Temp;Humidity;BMP_temperature;BMP_pressure;BME280_temperature;BME280_humidity;BME280_pressure;Samples;Min_cycle;Max_cycle;Signal;HPM_P1;HPM_P2
2022/08/31 00:04:45;;;;;;;;;;;;;;;15.99;74.31;101158.33;1677163;85;20196;-72
2022/08/31 00:07:10;;;;;;;;;;;;;;;15.96;74.32;101154.17;1682150;85;20190;-72
2022/08/31 00:09:36;;;;;;;;;;;;;;;15.95;74.35;101159.72;1665190;85;21839;-71
2022/08/31 00:12:03;;;;;;;;;;;;;;;15.91;74.36;101151.69;1680631;84;20308;-71
2022/08/31 00:14:28;;;;;;;;;;;;;;;15.90;74.40;101149.51;1682821;85;20441;-72
2022/08/31 00:16:54;;;;;;;;;;;;;;;15.88;74.43;101156.11;1681964;85;20206;-71
2022/08/31 00:19:20;;;;;;;;;;;;;;;15.84;74.43;101154.80;1681623;85;20861;-71
2022/08/31 00:21:46;;;;;;;;;;;;;;;15.80;74.48;101152.99;1682439;85;21237;-71
2022/08/31 00:24:13;;;;;;;;;;;;;;;15.81;74.56;101157.87;1682051;83;20213;-71
2022/08/31 00:26:39;;;;;;;;;;;;;;;15.83;74.62;101155.84;1681005;85;20203;-71
2022/08/31 00:29:05;;;;;;;;;;;;;;;15.79;74.62;101151.85;1682135;84;20191;-71
2022/08/31 00:31:31;;;;;;;;;;;;;;;15.75;74.64;101151.89;1682836;85;20572;-71
2022/08/31 00:33:57;;;;;;;;;;;;;;;15.71;74.67;101150.08;1678490;84;21867;-71
2022/08/31 00:36:24;;;;;;;;;;;;;;;15.71;74.73;101152.77;1682087;85;20332;-72
2022/08/31 00:38:50;;;;;;;;;;;;;;;15.72;74.77;101150.92;1682623;84;20509;-71
2022/08/31 00:41:18;;;;;;;;;;;;;;;15.69;74.79;101152.64;1683009;83;20491;-71
2022/08/31 00:43:47;;;;;;;;;;;;;;;15.68;74.85;101149.62;1683507;85;20667;-71
2022/08/31 00:46:15;;;;;;;;;;;;;;;15.65;74.90;101151.33;1682703;83;21149;-71
2022/08/31 00:48:44;;;;;;;;;;;;;;;15.62;74.96;101156.55;1683451;85;20206;-71
2022/08/31 00:51:10;;;;;;;;;;;;;;;15.60;75.04;101151.87;1683424;84;20187;-71
2022/08/31 00:53:36;;;;;;;;;;;;;;;15.59;75.08;101148.02;1656141;83;20199;-71
2022/08/31 00:56:02;;;;;;;;;;;;;;;15.57;75.13;101142.00;1668994;85;20252;-71
2022/08/31 00:58:28;;;;;;;;;;;;;;;15.53;75.17;101146.06;1683243;84;21070;-71
2022/08/31 01:00:54;;;;;;;;;;;;;;;15.51;75.25;101141.40;1655920;85;20241;-71
2022/08/31 01:03:21;;;;;;;;;;;;;;;15.51;75.36;101148.13;1683200;84;20227;-71
2022/08/31 01:05:48;;;;;;;;;;;;;;;15.52;75.42;101147.11;1682237;84;20158;-72
2022/08/31 01:08:14;;;;;;;;;;;;;;;15.53;75.48;101146.06;1681539;84;20157;-72
2022/08/31 01:10:42;;;;;;;;;;;;;;;15.53;75.54;101152.80;1639510;85;21830;-72
2022/08/31 01:13:11;;;;;;;;;;;;;;;15.52;75.57;101142.54;1683282;85;20191;-72
2022/08/31 01:15:36;;;;;;;;;;;;;;;15.53;75.59;101148.76;1682559;85;20510;-72
2022/08/31 01:18:03;;;;;;;;;;;;;;;15.52;75.65;101155.17;1682557;85;38874;-72
2022/08/31 01:20:49;;;;;;;;;;;;;;;15.51;75.71;101155.68;1682457;83;20194;-71
2022/08/31 01:23:26;;;;;;;;;;;;;;;15.51;75.73;101153.50;1682747;85;21062;-72
2022/08/31 01:25:53;;;;;;;;;;;;;;;15.45;75.75;101158.55;1682390;85;20210;-72
2022/08/31 01:28:19;;;;;;;;;;;;;;;15.42;75.81;101157.56;1682691;85;20483;-72
2022/08/31 01:30:56;;;;;;;;;;;;;;;15.37;75.86;101153.27;1682701;85;20241;-71
2022/08/31 01:33:22;;;;;;;;;;;;;;;15.32;75.91;101152.97;1683382;85;20199;-72
2022/08/31 01:35:48;;;;;;;;;;;;;;;15.27;75.99;101151.31;1682315;85;21214;-72
2022/08/31 01:38:14;;;;;;;;;;;;;;;15.24;76.06;101154.38;1683257;85;20821;-71
2022/08/31 01:40:45;;;;;;;;;;;;;;;15.20;76.15;101151.72;1683173;85;20229;-71
2022/08/31 01:43:11;;;;;;;;;;;;;;;15.19;76.22;101154.09;1683317;84;20308;-72
2022/08/31 01:45:37;;;;;;;;;;;;;;;15.17;76.29;101153.93;1682679;85;20194;-72
2022/08/31 01:48:03;;;;;;;;;;;;;;;15.12;76.37;101149.13;1683322;84;21076;-71
2022/08/31 01:50:29;;;;;;;;;;;;;;;15.07;76.43;101147.47;1683464;84;20491;-71
2022/08/31 01:52:55;;;;;;;;;;;;;;;15.03;76.50;101146.16;1683500;85;20221;-71
2022/08/31 01:55:21;;;;;;;;;;;;;;;15.05;76.58;101150.02;1682571;84;20869;-71
2022/08/31 01:57:47;;;;;;;;;;;;;;;15.04;76.66;101146.50;1681861;84;20336;-71
2022/08/31 02:00:13;;;;;;;;;;;;;;;14.99;76.71;101151.56;1676012;83;21090;-71
2022/08/31 02:02:39;;;;;;;;;;;;;;;14.99;76.79;101152.91;1673948;85;20183;-71
2022/08/31 02:05:05;;;;;;;;;;;;;;;14.98;76.88;101154.78;1675758;85;20229;-71
2022/08/31 02:07:31;;;;;;;;;;;;;;;14.95;76.92;101151.08;1675867;85;20196;-71
2022/08/31 02:09:57;;;;;;;;;;;;;;;14.92;76.97;101158.16;1656553;85;20194;-71
2022/08/31 02:12:23;;;;;;;;;;;;;;;14.90;77.01;101160.70;1674847;84;21107;-71
2022/08/31 02:14:49;;;;;;;;;;;;;;;14.88;77.07;101160.06;1675675;85;20241;-71
2022/08/31 02:17:15;;;;;;;;;;;;;;;14.87;77.11;101154.36;1670885;84;20193;-71
2022/08/31 02:19:41;;;;;;;;;;;;;;;14.84;77.14;101152.88;1664412;84;20206;-71
2022/08/31 02:22:07;;;;;;;;;;;;;;;14.83;77.19;101155.22;1675299;85;20295;-71
2022/08/31 02:24:33;;;;;;;;;;;;;;;14.81;77.26;101162.60;1675588;85;21128;-71
2022/08/31 02:26:59;;;;;;;;;;;;;;;14.80;77.31;101156.09;1675615;85;20192;-71
2022/08/31 02:29:25;;;;;;;;;;;;;;;14.75;77.32;101162.48;1675261;84;20297;-71
2022/08/31 02:31:51;;;;;;;;;;;;;;;14.70;77.41;101159.02;1680378;84;20616;-71
2022/08/31 02:34:17;;;;;;;;;;;;;;;14.67;77.48;101163.38;1675672;84;20186;-71
2022/08/31 02:36:44;;;;;;;;;;;;;;;14.66;77.56;101162.22;1675938;84;21066;-71
2022/08/31 02:39:10;;;;;;;;;;;;;;;14.65;77.61;101163.23;1675377;84;20184;-71
2022/08/31 02:41:36;;;;;;;;;;;;;;;14.64;77.65;101160.20;1674423;84;20243;-71
2022/08/31 02:44:02;;;;;;;;;;;;;;;14.63;77.71;101162.08;1675496;84;20714;-71
2022/08/31 02:46:28;;;;;;;;;;;;;;;14.63;77.77;101159.39;1675511;84;20174;-71
2022/08/31 02:48:54;;;;;;;;;;;;;;;14.62;77.79;101158.22;1675649;84;21093;-71
2022/08/31 02:51:20;;;;;;;;;;;;;;;14.62;77.85;101156.88;1670896;85;20218;-71
2022/08/31 02:53:46;;;;;;;;;;;;;;;14.60;77.88;101148.17;1675764;85;20257;-71
2022/08/31 02:56:12;;;;;;;;;;;;;;;14.59;77.93;101152.70;1676708;85;20254;-71
2022/08/31 02:58:39;;;;;;;;;;;;;;;14.58;77.98;101152.87;1675743;84;20199;-71
2022/08/31 03:01:05;;;;;;;;;;;;;;;14.57;78.02;101158.73;1674773;84;21165;-72
2022/08/31 03:03:31;;;;;;;;;;;;;;;14.55;78.06;101158.59;1675793;85;20205;-71
2022/08/31 03:05:57;;;;;;;;;;;;;;;14.53;78.10;101159.30;1675695;85;20494;-71
2022/08/31 03:08:23;;;;;;;;;;;;;;;14.47;78.13;101155.45;1671579;85;20178;-71
2022/08/31 03:10:49;;;;;;;;;;;;;;;14.44;78.18;101162.02;1660069;85;20222;-71
2022/08/31 03:13:15;;;;;;;;;;;;;;;14.42;78.24;101160.02;1675598;85;21799;-71
2022/08/31 03:15:41;;;;;;;;;;;;;;;14.39;78.27;101159.01;1675643;85;20249;-71
2022/08/31 03:18:07;;;;;;;;;;;;;;;14.34;78.31;101161.41;1675104;84;20542;-71
2022/08/31 03:20:33;;;;;;;;;;;;;;;14.29;78.36;101161.05;1676084;85;20182;-71
2022/08/31 03:22:58;;;;;;;;;;;;;;;14.25;78.41;101161.59;1675648;85;20881;-71
2022/08/31 03:25:24;;;;;;;;;;;;;;;14.21;78.46;101162.95;1675149;84;22415;-71
2022/08/31 03:27:50;;;;;;;;;;;;;;;14.17;78.52;101165.14;1675110;85;20214;-71
2022/08/31 03:30:18;;;;;;;;;;;;;;;14.12;78.58;101166.16;1674673;85;20260;-71
2022/08/31 03:32:44;;;;;;;;;;;;;;;14.07;78.63;101160.50;1675042;84;20554;-71
2022/08/31 03:35:10;;;;;;;;;;;;;;;14.03;78.68;101164.53;1675479;85;20210;-71
2022/08/31 03:37:36;;;;;;;;;;;;;;;14.00;78.75;101162.20;1675728;85;21008;-71
2022/08/31 03:40:03;;;;;;;;;;;;;;;13.97;78.81;101163.86;1674718;85;20490;-71
2022/08/31 03:42:29;;;;;;;;;;;;;;;13.95;78.82;101164.55;1675827;85;20527;-71
2022/08/31 03:44:55;;;;;;;;;;;;;;;13.93;78.89;101171.95;1675798;84;20182;-71
2022/08/31 03:47:21;;;;;;;;;;;;;;;13.90;78.93;101178.97;1675411;84;20278;-71
2022/08/31 03:49:46;;;;;;;;;;;;;;;13.86;78.97;101180.34;1675125;84;21922;-71
2022/08/31 03:52:12;;;;;;;;;;;;;;;13.83;79.01;101182.00;1675265;85;20285;-71
2022/08/31 03:54:38;;;;;;;;;;;;;;;13.80;79.05;101183.20;1651792;86;20295;-71
2022/08/31 03:57:04;;;;;;;;;;;;;;;13.79;79.10;101180.70;1664006;85;20182;-71
2022/08/31 03:59:30;;;;;;;;;;;;;;;13.74;79.15;101188.41;1675230;83;20550;-71
2022/08/31 04:01:56;;;;;;;;;;;;;;;13.70;79.22;101185.23;1675613;84;21214;-71
2022/08/31 04:04:22;;;;;;;;;;;;;;;13.69;79.26;101185.39;1675868;84;20834;-71
2022/08/31 04:06:48;;;;;;;;;;;;;;;13.68;79.32;101183.73;1675787;85;20257;-71
2022/08/31 04:09:14;;;;;;;;;;;;;;;13.67;79.37;101192.78;1674377;84;20179;-71
2022/08/31 04:11:41;;;;;;;;;;;;;;;13.65;79.40;101184.09;1675900;85;20190;-71
2022/08/31 04:14:07;;;;;;;;;;;;;;;13.62;79.45;101187.92;1675811;84;21071;-71
2022/08/31 04:16:33;;;;;;;;;;;;;;;13.62;79.48;101183.06;1675264;85;20190;-71
2022/08/31 04:18:59;;;;;;;;;;;;;;;13.64;79.53;101187.77;1674601;85;20175;-71
2022/08/31 04:21:26;;;;;;;;;;;;;;;13.62;79.57;101180.38;1675961;84;20289;-71
2022/08/31 04:23:52;;;;;;;;;;;;;;;13.62;79.63;101181.72;1675905;84;20191;-71
2022/08/31 04:26:24;;;;;;;;;;;;;;;13.62;79.70;101188.42;1654627;85;21031;-71
2022/08/31 04:28:49;;;;;;;;;;;;;;;13.59;79.73;101185.59;1672199;85;20195;-71
2022/08/31 04:31:16;;;;;;;;;;;;;;;13.61;79.76;101181.41;1676987;84;20297;-71
2022/08/31 04:33:42;;;;;;;;;;;;;;;13.61;79.81;101182.75;1675891;84;20194;-71
2022/08/31 04:36:09;;;;;;;;;;;;;;;13.64;79.82;101189.10;1675825;84;20182;-71
2022/08/31 04:38:35;;;;;;;;;;;;;;;13.68;79.88;101190.44;1675119;84;21885;-71
2022/08/31 04:41:11;;;;;;;;;;;;;;;13.74;79.91;101187.91;1675660;85;20222;-70
2022/08/31 04:43:38;;;;;;;;;;;;;;;13.89;80.04;101189.38;1675839;84;20188;-71
2022/08/31 04:46:05;;;;;;;;;;;;;;;14.40;80.25;101190.20;1674833;84;20195;-72
2022/08/31 04:48:31;;;;;;;;;;;;;;;14.88;80.21;101186.92;1675592;85;20188;-71
2022/08/31 04:51:04;;;;;;;;;;;;;;;15.20;79.97;101188.53;1675459;85;21127;-71
2022/08/31 04:53:30;;;;;;;;;;;;;;;15.44;79.84;101187.81;1674838;84;20212;-71
2022/08/31 04:55:56;;;;;;;;;;;;;;;15.44;79.56;101186.47;1672566;84;20236;-71
2022/08/31 04:58:22;;;;;;;;;;;;;;;15.54;79.55;101180.02;1675628;85;20213;-71
2022/08/31 05:00:49;;;;;;;;;;;;;;;16.01;79.61;101184.53;1680640;83;20191;-71
2022/08/31 05:03:16;;;;;;;;;;;;;;;16.12;79.14;101180.03;1678159;84;21116;-71
2022/08/31 05:05:45;;;;;;;;;;;;;;;16.06;79.08;101183.47;1682741;83;20194;-71
2022/08/31 05:08:10;;;;;;;;;;;;;;;16.02;79.02;101182.17;1682238;85;20529;-71
2022/08/31 05:10:36;;;;;;;;;;;;;;;15.99;78.95;101186.08;1682462;84;20239;-71
2022/08/31 05:13:02;;;;;;;;;;;;;;;16.04;78.81;101188.22;1683044;84;20184;-71
2022/08/31 05:15:28;;;;;;;;;;;;;;;16.33;78.83;101193.55;1683351;84;21810;-71
2022/08/31 05:17:54;;;;;;;;;;;;;;;17.09;78.58;101194.86;1683366;85;20205;-71
2022/08/31 05:20:20;;;;;;;;;;;;;;;17.49;77.61;101197.38;1682917;85;20312;-71
2022/08/31 05:22:46;;;;;;;;;;;;;;;17.51;77.04;101203.43;1680560;85;21084;-71
2022/08/31 05:25:11;;;;;;;;;;;;;;;17.21;77.02;101195.16;1703334;84;20195;-72
2022/08/31 05:27:38;;;;;;;;;;;;;;;17.25;77.22;101201.33;1685235;84;21208;-72
2022/08/31 05:30:05;;;;;;;;;;;;;;;17.09;77.22;101205.65;1693428;83;20179;-71
2022/08/31 05:32:31;;;;;;;;;;;;;;;16.87;77.27;101206.66;1682343;85;20494;-71
2022/08/31 05:34:56;;;;;;;;;;;;;;;16.86;77.36;101213.06;1683451;85;20194;-71
2022/08/31 05:37:22;;;;;;;;;;;;;;;16.87;77.27;101208.00;1683422;85;20202;-71
2022/08/31 05:39:48;;;;;;;;;;;;;;;16.85;77.20;101214.91;1683338;85;21076;-71
2022/08/31 05:42:14;;;;;;;;;;;;;;;16.79;77.10;101217.54;1684288;84;20300;-72
2022/08/31 05:44:40;;;;;;;;;;;;;;;16.89;77.13;101220.25;1683051;85;20213;-72
2022/08/31 05:47:06;;;;;;;;;;;;;;;17.08;77.08;101224.70;1683491;85;20195;-72
2022/08/31 05:49:32;;;;;;;;;;;;;;;17.41;76.99;101222.65;1683360;85;20758;-71
2022/08/31 05:52:01;;;;;;;;;;;;;;;17.63;76.76;101222.62;1682784;85;20696;-72
2022/08/31 05:54:27;;;;;;;;;;;;;;;17.80;76.63;101232.12;1678776;85;20171;-72
2022/08/31 05:56:53;;;;;;;;;;;;;;;18.03;76.60;101227.79;1682824;84;20191;-72
2022/08/31 05:59:19;;;;;;;;;;;;;;;18.15;76.41;101229.75;1682943;84;20608;-72
2022/08/31 06:01:45;;;;;;;;;;;;;;;18.07;76.12;101229.91;1673020;84;20238;-72
2022/08/31 06:04:11;;;;;;;;;;;;;;;17.88;76.07;101230.09;1673163;84;21120;-72
2022/08/31 06:06:37;;;;;;;;;;;;;;;17.88;75.99;101244.09;1671688;84;20269;-72
2022/08/31 06:09:04;;;;;;;;;;;;;;;17.84;75.79;101238.77;1673618;84;20870;-72
2022/08/31 06:11:30;;;;;;;;;;;;;;;17.98;75.74;101239.17;1671554;84;20538;-72
2022/08/31 06:13:57;;;;;;;;;;;;;;;18.14;75.59;101241.58;1673504;84;20227;-72
2022/08/31 06:16:23;;;;;;;;;;;;;;;18.35;75.39;101240.14;1673154;85;21091;-72
2022/08/31 06:18:54;;;;;;;;;;;;;;;18.43;75.17;101248.09;1673543;85;20187;-72
2022/08/31 06:21:19;;;;;;;;;;;;;;;18.45;74.95;101251.41;1672066;84;20226;-72
2022/08/31 06:23:46;;;;;;;;;;;;;;;18.49;74.79;101249.14;1672342;85;20190;-72
2022/08/31 06:26:14;;;;;;;;;;;;;;;18.43;74.64;101251.30;1673235;84;20180;-72
2022/08/31 06:28:42;;;;;;;;;;;;;;;18.46;74.49;101254.43;1673312;84;21118;-72
2022/08/31 06:31:18;;;;;;;;;;;;;;;18.57;74.37;101254.92;1673106;84;20244;-72
2022/08/31 06:33:44;;;;;;;;;;;;;;;18.86;74.21;101260.01;1670837;84;20542;-72
2022/08/31 06:36:11;;;;;;;;;;;;;;;19.09;73.96;101257.80;1673404;84;20195;-72
2022/08/31 06:38:39;;;;;;;;;;;;;;;19.16;73.81;101255.11;1673706;85;20215;-72
2022/08/31 06:41:22;;;;;;;;;;;;;;;19.25;73.60;101257.41;1672019;84;20615;-72
2022/08/31 06:43:48;;;;;;;;;;;;;;;19.24;73.32;101258.47;1664881;85;20184;-72
2022/08/31 06:46:15;;;;;;;;;;;;;;;19.11;73.10;101261.13;1673337;85;20277;-72
2022/08/31 06:48:40;;;;;;;;;;;;;;;19.24;72.98;101258.47;1672514;85;20482;-72
2022/08/31 06:51:07;;;;;;;;;;;;;;;19.21;72.76;101264.27;1671781;84;20237;-72
2022/08/31 06:53:33;;;;;;;;;;;;;;;19.20;72.57;101259.91;1672705;84;21249;-72
2022/08/31 06:56:05;;;;;;;;;;;;;;;19.40;72.46;101266.18;1672377;85;20191;-72
2022/08/31 06:58:31;;;;;;;;;;;;;;;19.48;72.27;101269.76;1671002;85;20177;-72
2022/08/31 07:00:58;;;;;;;;;;;;;;;19.56;72.08;101267.70;1671630;84;20207;-72
2022/08/31 07:03:31;;;;;;;;;;;;;;;19.63;71.86;101263.63;1674429;85;20195;-72
2022/08/31 07:05:52;;;;;;;;;;;;;;;19.67;71.66;101270.27;1674627;84;21373;-72
2022/08/31 07:08:18;;;;;;;;;;;;;;;19.60;71.49;101262.70;1672493;85;20161;-72
2022/08/31 07:10:45;;;;;;;;;;;;;;;19.77;71.45;101265.30;1660436;85;20183;-72
2022/08/31 07:13:11;;;;;;;;;;;;;;;20.10;71.29;101264.73;1676246;85;20794;-73
2022/08/31 07:15:37;;;;;;;;;;;;;;;20.29;71.01;101261.20;1656139;85;20737;-73
2022/08/31 07:18:03;;;;;;;;;;;;;;;20.36;70.82;101259.30;1675354;85;21559;-73
2022/08/31 07:20:28;;;;;;;;;;;;;;;20.35;70.68;101261.69;1675349;85;20532;-73
2022/08/31 07:22:56;;;;;;;;;;;;;;;20.50;70.59;101266.02;1675436;84;20178;-73
2022/08/31 07:25:22;;;;;;;;;;;;;;;20.60;70.31;101269.11;1672877;85;20237;-73
2022/08/31 07:27:52;;;;;;;;;;;;;;;20.56;70.11;101267.87;1659530;85;20199;-73
2022/08/31 07:30:16;;;;;;;;;;;;;;;20.57;69.88;101270.38;1672149;84;22198;-73
2022/08/31 07:32:41;;;;;;;;;;;;;;;20.60;69.75;101267.75;1675248;84;20241;-73
2022/08/31 07:35:08;;;;;;;;;;;;;;;20.53;69.55;101272.37;1674303;84;20212;-72
2022/08/31 07:43:03;;;;;;;;;;;;;;;20.39;68.92;101272.41;1676127;85;21523;-73
2022/08/31 07:45:29;;;;;;;;;;;;;;;20.47;68.75;101277.30;1675791;84;20478;-73
2022/08/31 07:47:56;;;;;;;;;;;;;;;20.44;68.62;101283.44;1676018;85;20283;-72
2022/08/31 07:50:22;;;;;;;;;;;;;;;20.29;68.47;101281.52;1676069;85;20192;-73
2022/08/31 07:52:52;;;;;;;;;;;;;;;20.31;68.40;101273.99;1676183;85;20168;-73
2022/08/31 07:55:18;;;;;;;;;;;;;;;20.42;68.33;101287.41;1676308;85;21463;-72
2022/08/31 07:57:44;;;;;;;;;;;;;;;20.52;68.20;101285.08;1676072;85;20154;-72
2022/08/31 08:00:17;;;;;;;;;;;;;;;20.56;68.03;101281.42;1676343;85;20165;-73
2022/08/31 08:02:45;;;;;;;;;;;;;;;20.32;67.81;101282.44;1676482;84;20214;-72
2022/08/31 08:05:19;;;;;;;;;;;;;;;20.21;67.71;101281.70;1677943;85;20162;-72
2022/08/31 08:07:40;;;;;;;;;;;;;;;20.17;67.65;101284.52;1677062;84;21445;-72
2022/08/31 08:10:08;;;;;;;;;;;;;;;20.29;67.54;101290.16;1675741;84;20206;-72
2022/08/31 08:12:35;;;;;;;;;;;;;;;20.41;67.41;101278.44;1675051;84;20227;-72
2022/08/31 08:15:03;;;;;;;;;;;;;;;20.47;67.22;101285.42;1675590;84;20215;-72
2022/08/31 08:17:29;;;;;;;;;;;;;;;20.44;67.08;101278.56;1675714;84;20191;-72
2022/08/31 08:19:55;;;;;;;;;;;;;;;20.57;67.07;101270.90;1675384;85;21596;-72
2022/08/31 08:22:21;;;;;;;;;;;;;;;20.58;66.80;101273.92;1671564;84;20281;-72
2022/08/31 08:24:47;;;;;;;;;;;;;;;20.70;66.74;101278.97;1675739;84;20794;-72
2022/08/31 08:27:14;;;;;;;;;;;;;;;20.78;66.63;101281.45;1675655;84;20733;-72
2022/08/31 08:29:40;;;;;;;;;;;;;;;20.81;66.47;101283.73;1675688;84;20617;-72
2022/08/31 08:32:07;;;;;;;;;;;;;;;20.47;66.14;101276.78;1675903;84;21575;-72
2022/08/31 08:34:33;;;;;;;;;;;;;;;20.49;66.27;101273.84;1675704;85;20458;-72
2022/08/31 08:36:59;;;;;;;;;;;;;;;20.70;66.28;101278.97;1674598;84;20206;-72
2022/08/31 08:39:25;;;;;;;;;;;;;;;20.95;66.09;101278.55;1656526;85;20223;-73
2022/08/31 08:41:52;;;;;;;;;;;;;;;20.79;65.88;101291.26;1675889;84;20443;-73
2022/08/31 08:44:19;;;;;;;;;;;;;;;20.75;65.77;101281.89;1673545;84;22143;-73
2022/08/31 08:46:56;;;;;;;;;;;;;;;20.79;65.49;101283.12;1681107;84;20611;-72
2022/08/31 08:49:40;;;;;;;;;;;;;;;20.91;65.44;101293.07;1677902;85;20184;-72
2022/08/31 08:52:31;;;;;;;;;;;;;;;20.97;64.93;101296.78;1677963;85;20267;-72
2022/08/31 08:55:06;;;;;;;;;;;;;;;20.98;64.67;101286.25;1677946;85;20154;-72
2022/08/31 08:57:34;;;;;;;;;;;;;;;20.94;64.64;101282.30;1677841;85;22378;-72
2022/08/31 09:00:10;;;;;;;;;;;;;;;21.22;64.55;101281.45;1677162;85;20161;-72
2022/08/31 09:02:42;;;;;;;;;;;;;;;21.22;64.29;101281.45;1672478;84;20470;-72
2022/08/31 09:05:33;;;;;;;;;;;;;;;21.33;64.18;101277.20;1671369;85;20282;-73
2022/08/31 09:08:00;;;;;;;;;;;;;;;21.45;63.94;101275.98;1670696;85;20194;-72
2022/08/31 09:10:44;;;;;;;;;;;;;;;21.51;63.52;101274.58;1651980;85;21776;-72
2022/08/31 09:13:14;;;;;;;;;;;;;;;21.58;63.22;101284.03;1671326;86;20464;-72
2022/08/31 09:15:52;;;;;;;;;;;;;;;21.50;62.86;101278.34;1652743;86;20404;-72
2022/08/31 09:18:31;;;;;;;;;;;;;;;21.51;62.71;101273.74;1669533;85;20284;-72
2022/08/31 09:21:05;;;;;;;;;;;;;;;21.23;62.20;101281.77;1671439;86;20155;-72
2022/08/31 09:23:35;;;;;;;;;;;;;;;21.02;62.15;101278.00;1670980;86;21349;-72
2022/08/31 09:26:01;;;;;;;;;;;;;;;21.01;61.83;101281.75;1671213;86;20189;-72
2022/08/31 09:28:43;;;;;;;;;;;;;;;21.00;61.46;101282.81;1671327;84;20404;-72
2022/08/31 09:31:06;;;;;;;;;;;;;;;21.14;61.41;101272.75;1654329;84;20388;-72
2022/08/31 09:33:34;;;;;;;;;;;;;;;21.40;61.12;101273.41;1671265;84;20175;-72
2022/08/31 09:36:17;;;;;;;;;;;;;;;21.48;60.82;101277.73;1671247;86;21645;-72
2022/08/31 09:38:45;;;;;;;;;;;;;;;21.56;60.60;101274.77;1671089;86;20539;-72
2022/08/31 09:41:30;;;;;;;;;;;;;;;21.67;60.30;101272.70;1669668;84;20167;-72
2022/08/31 09:44:22;;;;;;;;;;;;;;;21.70;60.06;101283.64;1671248;84;20925;-71
2022/08/31 09:46:52;;;;;;;;;;;;;;;21.58;59.56;101281.31;1671483;85;20511;-72
2022/08/31 09:49:24;;;;;;;;;;;;;;;21.45;59.38;101274.63;1671339;84;21681;-72
2022/08/31 09:51:51;;;;;;;;;;;;;;;21.47;59.02;101272.52;1649341;86;20495;-72
2022/08/31 09:57:05;;;;;;;;;;;;;;;21.36;58.72;101269.98;1671430;85;20251;-72
2022/08/31 09:59:42;;;;;;;;;;;;;;;21.47;58.48;101264.37;1671172;84;20427;-72
2022/08/31 10:02:21;;;;;;;;;;;;;;;21.58;58.16;101267.73;1678242;83;22294;-72
2022/08/31 10:04:55;;;;;;;;;;;;;;;21.56;57.66;101265.78;1666161;85;20502;-72
2022/08/31 10:07:43;;;;;;;;;;;;;;;21.63;57.32;101269.28;1683220;84;20153;-72
2022/08/31 10:10:15;;;;;;;;;;;;;;;21.73;57.05;101260.11;1678784;84;20368;-72
2022/08/31 10:12:53;;;;;;;;;;;;;;;21.79;56.87;101252.42;1679437;85;20194;-72
2022/08/31 10:15:34;;;;;;;;;;;;;;;21.72;56.73;101253.00;1683408;85;21692;-72
2022/08/31 10:18:12;;;;;;;;;;;;;;;21.55;56.54;101251.89;1683323;85;20263;-72
2022/08/31 10:20:45;;;;;;;;;;;;;;;21.59;56.52;101248.53;1682926;85;20207;-72
2022/08/31 10:23:35;;;;;;;;;;;;;;;21.58;56.12;101248.73;1683118;85;20826;-72
2022/08/31 10:26:07;;;;;;;;;;;;;;;21.48;55.78;101247.05;1681433;85;20196;-72
2022/08/31 10:28:42;;;;;;;;;;;;;;;21.43;55.76;101245.82;1682849;85;21490;-72
2022/08/31 10:31:19;;;;;;;;;;;;;;;21.57;55.84;101245.73;1683322;84;20178;-72
2022/08/31 10:36:44;;;;;;;;;;;;;;;21.82;55.66;101247.37;1683328;85;20268;-72
2022/08/31 10:39:20;;;;;;;;;;;;;;;21.92;55.65;101241.45;1656052;85;20187;-72
2022/08/31 10:41:48;;;;;;;;;;;;;;;21.93;55.47;101242.30;1682583;83;21651;-72
2022/08/31 10:44:22;;;;;;;;;;;;;;;21.92;55.51;101238.73;1683200;85;20446;-72
2022/08/31 10:46:44;;;;;;;;;;;;;;;21.95;55.34;101238.84;1683144;85;20186;-72
2022/08/31 10:49:11;;;;;;;;;;;;;;;21.93;55.34;101239.05;1683105;85;20261;-72
2022/08/31 10:52:02;;;;;;;;;;;;;;;21.89;55.28;101233.20;1683186;85;20390;-72
2022/08/31 10:54:32;;;;;;;;;;;;;;;22.01;55.18;101228.43;1682964;85;21671;-72
2022/08/31 10:57:28;;;;;;;;;;;;;;;21.89;54.67;101225.58;1618755;86;20200;-72
2022/08/31 11:03:26;;;;;;;;;;;;;;;22.24;54.44;101234.86;1676105;83;20198;-72
2022/08/31 11:05:56;;;;;;;;;;;;;;;22.32;54.02;101233.20;1665915;85;20214;-72
2022/08/31 11:08:28;;;;;;;;;;;;;;;22.38;53.69;101232.81;1672470;85;22568;-72
2022/08/31 11:10:55;;;;;;;;;;;;;;;22.39;53.38;101219.02;1660680;84;20186;-72
2022/08/31 11:13:37;;;;;;;;;;;;;;;22.50;53.30;101220.66;1675666;85;20253;-72
2022/08/31 11:16:09;;;;;;;;;;;;;;;22.56;53.09;101223.81;1675431;84;20371;-72
2022/08/31 11:18:50;;;;;;;;;;;;;;;22.55;52.64;101223.54;1675373;84;20206;-72
2022/08/31 11:21:24;;;;;;;;;;;;;;;22.28;52.45;101220.29;1643467;85;21604;-72
2022/08/31 11:24:11;;;;;;;;;;;;;;;22.05;52.26;101218.26;1675683;84;20451;-72
2022/08/31 11:26:58;;;;;;;;;;;;;;;21.92;52.29;101221.64;1675574;84;20408;-72
2022/08/31 11:29:40;;;;;;;;;;;;;;;21.87;52.23;101215.48;1619905;88;20215;-72
2022/08/31 11:32:09;;;;;;;;;;;;;;;21.63;52.12;101217.70;1619737;88;20284;-72
2022/08/31 11:34:49;;;;;;;;;;;;;;;21.61;52.24;101215.19;1644367;85;22409;-72
2022/08/31 11:37:49;;;;;;;;;;;;;;;21.75;52.29;101213.18;1674522;85;20587;-72
2022/08/31 11:40:42;;;;;;;;;;;;;;;21.73;52.14;101216.66;1675739;84;20268;-72
2022/08/31 11:43:17;;;;;;;;;;;;;;;21.71;52.14;101221.50;1660056;84;20503;-72
2022/08/31 11:45:43;;;;;;;;;;;;;;;21.59;51.99;101216.47;1672921;84;20187;-72
2022/08/31 11:48:29;;;;;;;;;;;;;;;21.60;52.08;101215.43;1675714;85;22163;-72
2022/08/31 11:50:58;;;;;;;;;;;;;;;21.59;51.97;101219.19;1675454;85;20191;-72
2022/08/31 11:53:36;;;;;;;;;;;;;;;21.71;52.10;101220.94;1674388;84;20147;-72
2022/08/31 11:56:03;;;;;;;;;;;;;;;21.90;52.10;101212.34;1675375;84;20841;-72
2022/08/31 11:58:33;;;;;;;;;;;;;;;21.91;51.92;101212.66;1675645;84;20199;-72
2022/08/31 12:01:11;;;;;;;;;;;;;;;21.87;51.83;101219.55;1675322;84;21236;-72
2022/08/31 12:03:50;;;;;;;;;;;;;;;21.92;51.77;101217.02;1675566;85;20176;-72
2022/08/31 12:06:31;;;;;;;;;;;;;;;21.97;51.67;101214.47;1672188;84;20175;-71
2022/08/31 12:09:02;;;;;;;;;;;;;;;21.79;51.48;101214.40;1659609;85;20190;-71
2022/08/31 12:11:46;;;;;;;;;;;;;;;21.75;51.44;101218.09;1663792;85;20199;-71
2022/08/31 12:14:21;;;;;;;;;;;;;;;21.68;51.39;101217.84;1668512;85;22491;-71
2022/08/31 12:17:08;;;;;;;;;;;;;;;21.70;51.18;101210.32;1672595;85;20183;-71
2022/08/31 12:19:59;;;;;;;;;;;;;;;21.71;51.03;101209.28;1675353;85;20611;-71
2022/08/31 12:25:47;;;;;;;;;;;;;;;21.83;50.82;101202.05;1670696;85;20546;-71
2022/08/31 12:28:19;;;;;;;;;;;;;;;21.95;50.48;101196.73;1676162;85;21553;-71
2022/08/31 12:30:50;;;;;;;;;;;;;;;21.88;50.14;101211.16;1674559;84;20234;-71
2022/08/31 12:33:18;;;;;;;;;;;;;;;21.79;49.84;101201.66;1675488;84;20182;-71
2022/08/31 12:35:48;;;;;;;;;;;;;;;21.81;49.73;101196.81;1673474;84;20215;-71
2022/08/31 12:38:18;;;;;;;;;;;;;;;21.84;49.62;101196.40;1671382;84;20203;-71
2022/08/31 12:40:47;;;;;;;;;;;;;;;21.87;49.30;101189.67;1673372;85;21415;-71
2022/08/31 12:43:18;;;;;;;;;;;;;;;21.89;49.25;101187.55;1673417;85;20653;-74
2022/08/31 12:46:09;;;;;;;;;;;;;;;21.92;49.18;101203.43;1674137;84;20555;-74
2022/08/31 12:48:56;;;;;;;;;;;;;;;21.94;49.21;101192.35;1663927;85;20196;-74
2022/08/31 12:51:48;;;;;;;;;;;;;;;22.02;49.26;101191.55;1673781;84;20491;-74
2022/08/31 12:54:43;;;;;;;;;;;;;;;22.07;49.23;101194.40;1675450;85;21491;-74
2022/08/31 12:57:25;;;;;;;;;;;;;;;22.11;49.13;101194.77;1675250;85;20203;-74
2022/08/31 13:00:16;;;;;;;;;;;;;;;22.12;49.07;101190.48;1674074;84;20183;-74
2022/08/31 13:02:42;;;;;;;;;;;;;;;22.13;49.10;101183.97;1674290;84;20179;-75
2022/08/31 13:05:26;;;;;;;;;;;;;;;22.24;48.98;101188.66;1675422;85;20212;-74
2022/08/31 13:07:52;;;;;;;;;;;;;;;22.21;48.90;101183.68;1675971;85;22371;-74
2022/08/31 13:10:32;;;;;;;;;;;;;;;22.28;48.87;101184.43;1675528;84;20450;-75